Time;durP1;ratioP1;P1;durP2;ratioP2;P2;SDS_P1;SDS_P2;PMS_P1;PMS_P2;Temp;Humidity;BMP_temperature;BMP_pressure;BME280_temperature;BME280_humidity;BME280_pressure;Samples;Min_cycle;Max_cycle;Signal;HPM_P1;HPM_P2
2023/03/25 00:00:20;;;;;;;0.10;0.10;;;8.50;99.90;;;;;;5002712;28;20036;-91
2023/03/25 00:02:49;;;;;;;0.10;0.10;;;8.50;99.90;;;;;;4999747;28;20022;-91
2023/03/25 00:05:16;;;;;;;0.10;0.10;;;8.60;99.90;;;;;;4999075;28;20037;-91
2023/03/25 00:07:43;;;;;;;0.10;0.10;;;8.60;99.90;;;;;;4999856;28;20038;-91
2023/03/25 00:10:10;;;;;;;0.10;0.10;;;8.50;99.90;;;;;;5000144;28;20431;-91
2023/03/25 00:12:36;;;;;;;0.10;0.10;;;;;;;;;;4998559;28;20031;-89
2023/03/25 00:15:02;;;;;;;0.10;0.10;;;;;;;;;;4997595;28;20027;-90
2023/03/25 00:17:29;;;;;;;0.10;0.10;;;;;;;;;;5005229;28;20036;-91
2023/03/25 00:19:55;;;;;;;0.10;0.10;;;;;;;;;;5002772;28;20034;-91
2023/03/25 00:22:22;;;;;;;0.10;0.10;;;8.60;99.90;;;;;;4999036;28;20044;-91
2023/03/25 00:24:48;;;;;;;0.10;0.10;;;;;;;;;;5002842;28;20435;-92
2023/03/25 00:27:16;;;;;;;0.10;0.10;;;8.60;99.90;;;;;;5001571;28;20128;-91
2023/03/25 00:29:42;;;;;;;0.10;0.10;;;;;;;;;;5000919;28;20057;-90
2023/03/25 00:32:08;;;;;;;0.10;0.10;;;;;;;;;;4989845;28;20774;-90
2023/03/25 00:34:40;;;;;;;0.10;0.10;;;;;;;;;;5003152;28;20037;-91
2023/03/25 00:37:07;;;;;;;0.10;0.10;;;8.70;99.90;;;;;;5000230;28;20520;-90
2023/03/25 00:39:33;;;;;;;0.10;0.10;;;;;;;;;;5002367;28;20041;-90
2023/03/25 00:42:00;;;;;;;0.10;0.10;;;;;;;;;;5002970;28;20544;-91
2023/03/25 00:44:26;;;;;;;0.10;0.10;;;;;;;;;;5004629;28;20051;-90
2023/03/25 00:46:52;;;;;;;0.00;0.00;;;8.90;99.90;;;;;;4997580;28;20087;-91
2023/03/25 00:49:18;;;;;;;0.05;0.05;;;9.00;99.90;;;;;;4997725;28;20373;-91
2023/03/25 00:51:44;;;;;;;0.10;0.10;;;9.00;99.90;;;;;;5002399;28;20030;-90
2023/03/25 00:54:10;;;;;;;0.10;0.10;;;8.90;99.90;;;;;;4999661;28;20459;-91
2023/03/25 00:56:36;;;;;;;0.10;0.10;;;9.10;99.90;;;;;;4998361;28;20080;-92
2023/03/25 00:59:02;;;;;;;0.10;0.10;;;;;;;;;;5003143;28;20084;-90
2023/03/25 01:01:28;;;;;;;0.10;0.10;;;9.20;99.90;;;;;;5000830;28;20026;-92
2023/03/25 01:03:58;;;;;;;0.10;0.10;;;9.20;99.90;;;;;;4997915;28;20093;-92
2023/03/25 01:06:45;;;;;;;0.00;0.00;;;9.10;99.90;;;;;;4997272;28;20033;-90
2023/03/25 01:09:13;;;;;;;0.10;0.10;;;9.30;99.90;;;;;;5004526;28;20101;-90
2023/03/25 01:11:39;;;;;;;0.10;0.10;;;9.30;99.90;;;;;;4999648;28;20038;-90
2023/03/25 01:14:10;;;;;;;0.10;0.10;;;9.30;99.90;;;;;;5002196;28;20030;-91
2023/03/25 01:16:36;;;;;;;0.10;0.10;;;;;;;;;;4999697;28;20392;-90
2023/03/25 01:19:02;;;;;;;0.00;0.00;;;;;;;;;;5005447;28;20038;-91
2023/03/25 01:21:28;;;;;;;0.10;0.10;;;9.30;99.90;;;;;;4998239;28;20045;-91
2023/03/25 01:23:54;;;;;;;0.10;0.10;;;;;;;;;;5001312;28;20116;-91
2023/03/25 01:26:19;;;;;;;0.00;0.00;;;9.30;99.90;;;;;;5002583;28;20077;-91
2023/03/25 01:28:45;;;;;;;0.10;0.10;;;9.30;99.90;;;;;;5007515;28;20061;-91
2023/03/25 01:31:12;;;;;;;0.10;0.10;;;9.30;99.90;;;;;;5006098;28;20045;-91
2023/03/25 01:33:39;;;;;;;0.08;0.08;;;9.30;99.90;;;;;;5004425;28;20041;-91
2023/03/25 01:36:08;;;;;;;0.00;0.00;;;9.10;99.90;;;;;;5021058;28;20167;-92
2023/03/25 01:38:35;;;;;;;0.00;0.00;;;9.30;99.90;;;;;;5006419;28;20512;-90
2023/03/25 01:41:02;;;;;;;0.00;0.00;;;;;;;;;;4994237;28;20520;-91
2023/03/25 01:43:28;;;;;;;0.05;0.05;;;;;;;;;;5006120;28;20022;-90
2023/03/25 01:45:54;;;;;;;0.10;0.10;;;;;;;;;;5002196;28;20034;-91
2023/03/25 01:48:40;;;;;;;0.10;0.10;;;9.30;99.90;;;;;;5002426;28;20147;-92
2023/03/25 01:51:06;;;;;;;0.10;0.10;;;;;;;;;;5004774;28;20524;-91
2023/03/25 01:53:32;;;;;;;0.00;0.00;;;;;;;;;;5007508;28;20097;-91
2023/03/25 01:56:01;;;;;;;0.00;0.00;;;9.40;99.90;;;;;;5003681;28;20041;-91
2023/03/25 01:58:30;;;;;;;0.10;0.10;;;9.40;99.90;;;;;;5008661;28;20026;-91
2023/03/25 02:00:56;;;;;;;0.10;0.10;;;9.40;99.90;;;;;;4999069;28;20288;-91
2023/03/25 02:03:23;;;;;;;0.00;0.00;;;9.40;99.90;;;;;;5005122;28;20060;-91
2023/03/25 02:06:02;;;;;;;0.10;0.10;;;9.30;99.90;;;;;;5005847;28;20040;-92
2023/03/25 02:08:31;;;;;;;0.00;0.00;;;9.40;99.90;;;;;;5004939;28;20033;-91
2023/03/25 02:10:57;;;;;;;0.10;0.10;;;;;;;;;;5005217;28;20052;-91
2023/03/25 02:13:23;;;;;;;0.10;0.10;;;;;;;;;;5004482;28;20089;-91
2023/03/25 02:16:18;;;;;;;0.10;0.10;;;9.40;99.90;;;;;;5003663;28;20083;-91
2023/03/25 02:19:01;;;;;;;0.10;0.10;;;9.40;99.90;;;;;;5004042;28;20069;-90
2023/03/25 02:21:27;;;;;;;0.10;0.10;;;;;;;;;;5004263;28;20034;-91
2023/03/25 02:24:05;;;;;;;0.10;0.10;;;9.30;99.90;;;;;;4999955;28;20033;-92
2023/03/25 02:26:55;;;;;;;0.00;0.00;;;9.40;99.90;;;;;;5007384;28;20058;-92
2023/03/25 02:29:48;;;;;;;0.03;0.03;;;9.30;99.90;;;;;;5006579;28;20085;-92
2023/03/25 02:32:37;;;;;;;0.10;0.10;;;9.40;99.90;;;;;;5001272;28;20569;-92
2023/03/25 02:35:28;;;;;;;0.10;0.10;;;9.40;99.90;;;;;;5005647;28;20432;-91
2023/03/25 02:38:16;;;;;;;0.10;0.10;;;9.40;99.90;;;;;;5000177;28;20567;-91
2023/03/25 02:40:51;;;;;;;0.00;0.00;;;9.30;99.90;;;;;;4999618;28;20420;-91
2023/03/25 02:43:31;;;;;;;0.10;0.10;;;8.90;99.90;;;;;;5002166;28;20115;-92
2023/03/25 02:46:01;;;;;;;0.00;0.00;;;9.30;99.90;;;;;;5003250;28;20026;-89
2023/03/25 02:48:53;;;;;;;0.10;0.10;;;9.20;99.90;;;;;;5007730;28;20026;-89
2023/03/25 02:51:25;;;;;;;0.10;0.10;;;11.60;99.90;;;;;;5008713;28;20029;-92
2023/03/25 02:53:54;;;;;;;0.10;0.10;;;9.40;99.90;;;;;;5002400;28;20032;-92
2023/03/25 02:56:24;;;;;;;0.10;0.10;;;9.30;99.90;;;;;;5001591;28;20037;-91
2023/03/25 02:58:50;;;;;;;0.10;0.10;;;;;;;;;;5001740;28;20128;-92
2023/03/25 03:01:16;;;;;;;0.03;0.03;;;;;;;;;;5001190;28;20027;-91
2023/03/25 03:03:42;;;;;;;0.08;0.08;;;9.20;99.90;;;;;;4999720;28;20037;-91
2023/03/25 03:06:16;;;;;;;0.10;0.10;;;9.20;99.90;;;;;;5006188;28;20077;-91
2023/03/25 03:08:47;;;;;;;0.10;0.10;;;9.20;99.90;;;;;;5003240;28;20045;-89
2023/03/25 03:11:21;;;;;;;0.10;0.10;;;9.20;99.90;;;;;;5004242;28;20018;-91
2023/03/25 03:14:24;;;;;;;0.10;0.10;;;9.20;99.90;;;;;;5002512;28;20026;-91
2023/03/25 03:16:59;;;;;;;0.10;0.10;;;9.10;99.90;;;;;;5000238;28;20031;-92
2023/03/25 03:19:37;;;;;;;0.00;0.00;;;9.10;99.90;;;;;;5002422;28;20037;-89
2023/03/25 03:22:15;;;;;;;0.00;0.00;;;9.10;99.90;;;;;;5002387;28;20069;-91
2023/03/25 03:24:48;;;;;;;0.10;0.10;;;9.10;99.90;;;;;;5003079;28;20069;-91
2023/03/25 03:27:37;;;;;;;0.00;0.00;;;9.10;99.90;;;;;;5000295;28;20496;-91
2023/03/25 03:30:12;;;;;;;0.10;0.10;;;9.90;99.90;;;;;;4995154;28;20057;-89
2023/03/25 03:32:56;;;;;;;0.10;0.10;;;8.90;99.90;;;;;;5001801;28;20393;-91
2023/03/25 03:35:28;;;;;;;0.10;0.10;;;9.40;99.90;;;;;;5001217;28;20717;-91
2023/03/25 03:38:11;;;;;;;0.10;0.10;;;8.80;99.90;;;;;;5006098;28;20540;-91
2023/03/25 03:40:40;;;;;;;0.10;0.10;;;8.90;99.90;;;;;;4999900;28;20641;-91
2023/03/25 03:43:11;;;;;;;0.10;0.10;;;8.70;99.90;;;;;;5004210;28;20070;-91
2023/03/25 03:45:41;;;;;;;0.10;0.10;;;8.70;99.90;;;;;;5002182;28;20035;-92
2023/03/25 03:48:16;;;;;;;0.00;0.00;;;8.70;99.90;;;;;;4999109;28;20485;-91
2023/03/25 03:50:49;;;;;;;0.10;0.10;;;8.70;99.90;;;;;;5001500;28;20125;-91
2023/03/25 03:53:26;;;;;;;0.10;0.10;;;8.70;99.90;;;;;;5003518;28;20270;-90
2023/03/25 03:56:02;;;;;;;0.10;0.10;;;8.80;99.90;;;;;;4999270;28;20045;-91
2023/03/25 03:58:33;;;;;;;0.10;0.10;;;8.80;99.90;;;;;;4997219;28;20034;-91
2023/03/25 04:01:10;;;;;;;0.10;0.10;;;8.80;99.90;;;;;;5004418;28;20052;-91
2023/03/25 04:03:41;;;;;;;0.10;0.10;;;8.90;99.90;;;;;;5000880;28;20065;-90
2023/03/25 04:06:15;;;;;;;0.10;0.10;;;8.90;99.90;;;;;;5001403;28;20057;-91
2023/03/25 04:09:17;;;;;;;0.10;0.10;;;8.90;99.90;;;;;;5002378;28;20026;-91
2023/03/25 04:11:49;;;;;;;0.03;0.03;;;8.90;99.90;;;;;;5003746;28;20655;-90
2023/03/25 04:14:15;;;;;;;0.10;0.10;;;;;;;;;;5002485;28;20102;-91
2023/03/25 04:16:44;;;;;;;0.10;0.10;;;;;;;;;;4997671;28;20040;-91
2023/03/25 04:19:12;;;;;;;0.10;0.10;;;;;;;;;;4998806;28;20037;-91
2023/03/25 04:21:38;;;;;;;0.10;0.10;;;;;;;;;;5000345;28;20026;-92
2023/03/25 04:24:07;;;;;;;0.10;0.10;;;;;;;;;;4997189;28;20088;-91
2023/03/25 04:26:36;;;;;;;0.10;0.10;;;8.70;99.90;;;;;;5004306;28;20041;-91
2023/03/25 04:29:04;;;;;;;0.10;0.10;;;8.50;99.90;;;;;;4984433;28;20049;-91
2023/03/25 04:31:30;;;;;;;0.10;0.10;;;;;;;;;;4997452;28;20027;-90
2023/03/25 04:33:57;;;;;;;0.10;0.10;;;8.60;99.90;;;;;;5001514;28;20041;-91
2023/03/25 04:36:27;;;;;;;0.10;0.10;;;8.50;99.90;;;;;;5001662;28;20030;-91
2023/03/25 04:38:54;;;;;;;0.10;0.10;;;8.40;99.90;;;;;;4999737;28;20080;-91
2023/03/25 04:41:20;;;;;;;0.10;0.10;;;;;;;;;;4992932;28;20042;-91
2023/03/25 04:43:46;;;;;;;0.10;0.10;;;;;;;;;;5000073;28;20520;-91
2023/03/25 04:46:14;;;;;;;0.10;0.10;;;8.30;99.90;;;;;;5001957;28;20066;-91
2023/03/25 04:48:40;;;;;;;0.10;0.10;;;;;;;;;;5005833;28;20030;-91
2023/03/25 04:51:09;;;;;;;0.10;0.10;;;8.30;99.90;;;;;;4996508;28;20026;-92
2023/03/25 04:53:35;;;;;;;0.10;0.10;;;;;;;;;;5004206;28;20030;-92
2023/03/25 04:56:00;;;;;;;0.10;0.10;;;;;;;;;;5000907;28;20128;-92
2023/03/25 04:58:27;;;;;;;0.10;0.10;;;;;;;;;;4998435;28;20030;-92
2023/03/25 05:00:53;;;;;;;0.10;0.10;;;;;;;;;;4994500;28;20407;-92
2023/03/25 05:03:23;;;;;;;0.10;0.10;;;8.50;99.90;;;;;;4999659;28;20026;-92
2023/03/25 05:05:50;;;;;;;0.10;0.10;;;8.50;99.90;;;;;;5000675;28;20504;-91
2023/03/25 05:08:17;;;;;;;0.10;0.10;;;8.40;99.90;;;;;;5002158;28;20037;-92
2023/03/25 05:10:42;;;;;;;0.10;0.10;;;8.70;99.90;;;;;;5000909;28;20033;-90
2023/03/25 05:13:09;;;;;;;0.10;0.10;;;8.60;99.90;;;;;;5002032;28;20026;-91
2023/03/25 05:15:38;;;;;;;0.10;0.10;;;8.60;99.90;;;;;;5001497;28;21155;-91
2023/03/25 05:18:14;;;;;;;0.10;0.10;;;8.60;99.90;;;;;;4995978;28;20503;-91
2023/03/25 05:20:42;;;;;;;0.10;0.10;;;8.50;99.90;;;;;;5007008;28;20827;-92
2023/03/25 05:23:16;;;;;;;0.10;0.10;;;8.60;99.90;;;;;;4998722;28;20080;-89
2023/03/25 11:25:45;;;;;;;0.00;0.00;;;12.30;99.90;;;;;;5008399;28;20038;-85
2023/03/25 11:28:18;;;;;;;0.00;0.00;;;12.40;99.90;;;;;;5018983;28;20108;-89
2023/03/25 11:31:14;;;;;;;0.00;0.00;;;12.60;99.90;;;;;;5004339;28;20022;-85
2023/03/25 11:33:40;;;;;;;0.00;0.00;;;12.80;99.90;;;;;;4984539;28;20494;-86
2023/03/25 11:36:24;;;;;;;0.00;0.00;;;13.00;99.90;;;;;;4993293;28;20037;-89
2023/03/25 11:38:57;;;;;;;0.00;0.00;;;13.00;99.90;;;;;;4987343;28;20018;-89
2023/03/25 11:41:26;;;;;;;0.00;0.00;;;12.90;99.90;;;;;;4980942;28;20027;-88
2023/03/25 11:43:52;;;;;;;0.00;0.00;;;12.80;99.90;;;;;;4994197;28;20063;-90
2023/03/25 11:46:20;;;;;;;0.00;0.00;;;13.00;99.90;;;;;;4985442;28;20066;-89
2023/03/25 11:48:46;;;;;;;0.00;0.00;;;13.00;99.90;;;;;;4986684;28;20034;-89
2023/03/25 11:51:24;;;;;;;0.00;0.00;;;13.00;99.90;;;;;;4988518;28;20076;-89
2023/03/25 11:54:04;;;;;;;0.00;0.00;;;13.10;99.90;;;;;;4982014;28;20109;-89
2023/03/25 11:56:35;;;;;;;;;;;13.20;99.90;;;;;;5001607;28;20158;-89
2023/03/25 11:59:02;;;;;;;0.00;0.00;;;13.30;99.90;;;;;;4987163;28;19910;-89
2023/03/25 12:01:44;;;;;;;0.00;0.00;;;13.30;99.90;;;;;;4999871;28;20109;-89
2023/03/25 12:04:22;;;;;;;0.00;0.00;;;13.30;99.90;;;;;;4988675;28;20022;-89
2023/03/25 12:07:07;;;;;;;0.00;0.00;;;13.10;99.90;;;;;;4986761;28;20027;-88
2023/03/25 12:09:33;;;;;;;0.00;0.00;;;12.80;99.90;;;;;;4989281;28;20030;-89
2023/03/25 12:12:09;;;;;;;0.00;0.00;;;12.70;99.90;;;;;;4990865;28;20576;-89
2023/03/25 12:15:05;;;;;;;0.00;0.00;;;12.70;99.90;;;;;;4988251;28;20105;-88
2023/03/25 12:17:58;;;;;;;0.00;0.00;;;12.70;99.90;;;;;;5009449;28;20021;-89
2023/03/25 12:20:55;;;;;;;0.00;0.00;;;12.60;99.90;;;;;;5012683;28;20077;-89
2023/03/25 12:23:50;;;;;;;0.00;0.00;;;12.70;99.90;;;;;;5013595;28;20033;-90
2023/03/25 12:26:21;;;;;;;0.00;0.00;;;12.70;99.90;;;;;;5008978;28;20041;-89
2023/03/25 12:29:05;;;;;;;0.00;0.00;;;12.60;99.90;;;;;;5013100;28;20034;-89
2023/03/25 12:32:00;;;;;;;0.00;0.00;;;12.60;99.90;;;;;;5013992;28;20026;-90
2023/03/25 12:34:55;;;;;;;0.00;0.00;;;12.60;99.90;;;;;;5014390;28;20029;-89
2023/03/25 12:37:56;;;;;;;0.00;0.00;;;12.60;99.90;;;;;;5014279;28;20566;-89
2023/03/25 12:41:00;;;;;;;0.00;0.00;;;12.50;99.90;;;;;;5011391;28;20029;-90
2023/03/25 12:43:38;;;;;;;0.00;0.00;;;12.30;99.90;;;;;;5010029;28;20042;-89
2023/03/25 12:46:24;;;;;;;0.00;0.00;;;12.20;99.90;;;;;;5011613;28;20036;-91
2023/03/25 12:49:15;;;;;;;0.00;0.00;;;12.20;99.90;;;;;;5011650;28;20026;-89
2023/03/25 12:52:10;;;;;;;0.00;0.00;;;12.20;99.90;;;;;;4996788;28;20437;-89
2023/03/25 12:55:01;;;;;;;0.00;0.00;;;12.20;99.90;;;;;;5006483;28;20035;-90
2023/03/25 12:57:54;;;;;;;0.10;0.10;;;12.10;99.90;;;;;;4992083;28;20023;-89
2023/03/25 13:00:40;;;;;;;0.00;0.00;;;11.80;99.90;;;;;;5001195;28;20568;-89
2023/03/25 13:03:41;;;;;;;0.00;0.00;;;11.80;99.90;;;;;;4993987;28;20026;-90
2023/03/25 13:06:25;;;;;;;0.00;0.00;;;11.70;99.90;;;;;;4992888;28;20030;-90
2023/03/25 13:09:09;;;;;;;0.00;0.00;;;11.60;99.90;;;;;;5009527;28;20072;-90
2023/03/25 13:11:42;;;;;;;0.00;0.00;;;11.60;99.90;;;;;;5008467;28;20489;-90
2023/03/25 13:14:19;;;;;;;0.00;0.00;;;11.40;99.90;;;;;;5009700;28;20109;-90
2023/03/25 13:16:47;;;;;;;0.00;0.00;;;11.20;99.90;;;;;;5010104;28;20493;-90
2023/03/25 13:19:17;;;;;;;0.00;0.00;;;11.20;99.90;;;;;;5010634;28;20022;-91
2023/03/25 13:21:49;;;;;;;0.00;0.00;;;11.50;99.90;;;;;;5011261;28;20049;-90
2023/03/25 13:24:19;;;;;;;0.00;0.00;;;11.70;99.90;;;;;;5014664;28;20462;-90
2023/03/25 13:26:47;;;;;;;0.00;0.00;;;12.20;99.90;;;;;;5030085;28;20026;-90
2023/03/25 13:29:27;;;;;;;0.03;0.03;;;11.60;99.90;;;;;;5016539;28;20032;-91
2023/03/25 13:31:56;;;;;;;0.00;0.00;;;11.60;99.90;;;;;;5015499;28;20388;-91
2023/03/25 13:34:51;;;;;;;0.00;0.00;;;11.50;99.90;;;;;;5015452;28;20101;-91
2023/03/25 13:37:35;;;;;;;0.00;0.00;;;11.40;99.90;;;;;;5013812;28;20101;-92
2023/03/25 13:40:11;;;;;;;0.00;0.00;;;11.30;99.90;;;;;;4997891;28;20070;-91
2023/03/25 13:42:41;;;;;;;0.00;0.00;;;11.20;99.90;;;;;;4992730;28;20027;-91
2023/03/25 13:45:17;;;;;;;0.00;0.00;;;11.10;99.90;;;;;;5003457;28;20162;-91
2023/03/25 13:47:53;;;;;;;0.00;0.00;;;11.30;99.90;;;;;;4992256;28;20037;-92
2023/03/25 13:50:27;;;;;;;0.00;0.00;;;11.30;99.90;;;;;;5008215;28;20225;-90
2023/03/25 13:53:01;;;;;;;0.00;0.00;;;11.30;99.90;;;;;;4995460;28;20112;-90
2023/03/25 13:55:40;;;;;;;0.00;0.00;;;11.20;99.90;;;;;;4995691;28;20601;-90
2023/03/25 13:58:20;;;;;;;0.03;0.03;;;11.10;99.90;;;;;;4996148;28;20038;-91
2023/03/25 14:00:58;;;;;;;0.00;0.00;;;11.30;99.90;;;;;;4995387;28;20270;-91
2023/03/25 14:03:51;;;;;;;0.00;0.00;;;11.50;99.90;;;;;;4991902;28;20050;-91
2023/03/25 14:06:34;;;;;;;0.00;0.00;;;11.50;99.90;;;;;;4991873;28;20509;-92
2023/03/25 14:09:37;;;;;;;0.00;0.00;;;11.40;99.90;;;;;;4991473;28;20031;-92
2023/03/25 14:12:14;;;;;;;0.10;0.10;;;11.20;99.90;;;;;;4990867;28;20034;-89
2023/03/25 14:14:48;;;;;;;0.00;0.00;;;10.90;99.90;;;;;;4992014;28;20387;-90
2023/03/25 14:17:16;;;;;;;0.00;0.00;;;10.90;99.90;;;;;;4991547;28;20054;-91
2023/03/25 14:19:48;;;;;;;0.00;0.00;;;11.90;99.90;;;;;;4993694;28;20035;-90
2023/03/25 14:22:21;;;;;;;0.00;0.00;;;11.50;99.90;;;;;;4991459;28;20027;-89
2023/03/25 14:24:48;;;;;;;0.10;0.10;;;11.20;99.90;;;;;;4974675;28;20050;-90
2023/03/25 14:27:30;;;;;;;0.00;0.00;;;10.50;99.90;;;;;;4988834;28;20065;-90
2023/03/25 14:30:14;;;;;;;0.00;0.00;;;10.20;99.90;;;;;;4975177;28;20030;-89
2023/03/25 14:32:43;;;;;;;0.03;0.03;;;9.90;99.90;;;;;;4976987;28;20121;-90
2023/03/25 14:35:35;;;;;;;0.10;0.10;;;9.40;99.90;;;;;;4992670;28;20086;-89
2023/03/25 14:38:06;;;;;;;0.10;0.10;;;9.50;99.90;;;;;;4995169;28;20478;-90
2023/03/25 14:40:38;;;;;;;0.10;0.10;;;9.60;99.90;;;;;;4983239;28;20093;-92
2023/03/25 14:43:33;;;;;;;0.00;0.00;;;9.90;99.90;;;;;;4974661;28;20023;-89
2023/03/25 14:46:11;;;;;;;0.10;0.10;;;9.80;99.90;;;;;;5008707;28;20485;-90
2023/03/25 14:48:45;;;;;;;0.00;0.00;;;10.00;99.90;;;;;;4994152;28;20038;-92
2023/03/25 14:51:33;;;;;;;0.00;0.00;;;10.70;99.90;;;;;;4987824;28;20023;-89
2023/03/25 14:54:14;;;;;;;0.00;0.00;;;10.20;99.90;;;;;;4985439;28;20388;-89
2023/03/25 14:57:05;;;;;;;0.10;0.10;;;10.30;99.90;;;;;;5008651;28;20558;-89
2023/03/25 14:59:38;;;;;;;0.00;0.00;;;10.50;99.90;;;;;;4983845;28;20058;-90
2023/03/25 15:02:26;;;;;;;0.00;0.00;;;10.40;99.90;;;;;;4989809;28;20482;-91
2023/03/25 15:04:58;;;;;;;0.00;0.00;;;10.40;99.90;;;;;;4979980;28;20510;-90
2023/03/25 15:07:53;;;;;;;0.00;0.00;;;10.40;99.90;;;;;;4995642;28;20085;-89
2023/03/25 15:10:24;;;;;;;0.10;0.10;;;10.30;99.90;;;;;;4994800;28;20034;-89
2023/03/25 15:12:54;;;;;;;0.00;0.00;;;10.10;99.90;;;;;;4994306;28;20025;-89
2023/03/25 15:15:51;;;;;;;;;;;10.00;99.90;;;;;;4995054;28;20061;-89
2023/03/25 15:18:35;;;;;;;0.10;0.10;;;9.90;99.90;;;;;;4995147;28;19929;-90
2023/03/25 15:21:03;;;;;;;0.10;0.10;;;9.80;99.90;;;;;;4987138;28;20489;-89
2023/03/25 15:23:48;;;;;;;0.10;0.10;;;9.60;99.90;;;;;;4994935;28;20051;-88
2023/03/25 15:26:31;;;;;;;0.00;0.00;;;9.50;99.90;;;;;;4992917;28;20065;-90
2023/03/25 15:29:26;;;;;;;0.10;0.10;;;9.50;99.90;;;;;;4994269;28;20034;-90
2023/03/25 15:32:07;;;;;;;0.00;0.00;;;9.50;99.90;;;;;;4992077;28;20030;-90
2023/03/25 15:34:40;;;;;;;0.00;0.00;;;9.60;99.90;;;;;;4992538;28;20023;-90
2023/03/25 15:37:28;;;;;;;0.10;0.10;;;9.70;99.90;;;;;;4990041;28;20469;-91
2023/03/25 15:40:08;;;;;;;0.10;0.10;;;10.90;99.90;;;;;;4995033;28;20493;-90
2023/03/25 15:42:52;;;;;;;0.10;0.10;;;9.90;99.90;;;;;;4993004;28;20026;-92
2023/03/25 15:45:35;;;;;;;0.10;0.10;;;9.90;99.90;;;;;;4994876;28;20037;-92
2023/03/25 15:48:06;;;;;;;0.00;0.00;;;10.10;99.90;;;;;;4991548;28;20529;-92
2023/03/25 15:51:15;;;;;;;0.00;0.00;;;10.50;99.90;;;;;;5004879;28;20058;-91
2023/03/25 15:53:52;;;;;;;0.00;0.00;;;10.50;99.90;;;;;;4988935;28;20030;-91
2023/03/25 15:56:26;;;;;;;0.00;0.00;;;10.60;99.90;;;;;;4994722;28;20020;-90
2023/03/25 15:59:28;;;;;;;0.00;0.00;;;10.60;99.90;;;;;;5004675;28;20053;-91
2023/03/25 16:01:54;;;;;;;0.00;0.00;;;10.70;99.90;;;;;;4985352;28;20619;-91
2023/03/25 16:04:41;;;;;;;0.00;0.00;;;10.80;99.90;;;;;;4993434;28;20074;-90
2023/03/25 16:07:11;;;;;;;0.00;0.00;;;10.90;99.90;;;;;;5003759;28;20034;-90
2023/03/25 16:09:44;;;;;;;0.00;0.00;;;10.90;99.90;;;;;;5005489;28;20069;-90
2023/03/25 16:12:10;;;;;;;0.00;0.00;;;10.80;99.90;;;;;;5009190;28;20100;-91
2023/03/25 16:14:36;;;;;;;0.03;0.03;;;10.80;99.90;;;;;;4989648;28;20106;-92
2023/03/25 16:17:06;;;;;;;0.10;0.10;;;10.70;99.90;;;;;;5003427;28;20026;-91
2023/03/25 16:19:42;;;;;;;0.00;0.00;;;11.80;99.90;;;;;;4992930;28;20129;-91
2023/03/25 16:22:21;;;;;;;0.00;0.00;;;10.60;99.90;;;;;;4983331;28;20042;-92
2023/03/25 16:24:48;;;;;;;0.00;0.00;;;10.70;99.90;;;;;;4991359;28;20038;-89
2023/03/25 16:27:45;;;;;;;0.00;0.00;;;11.80;99.90;;;;;;5000387;28;20117;-90
2023/03/25 16:30:27;;;;;;;0.10;0.10;;;10.80;99.90;;;;;;4986194;28;20049;-90
2023/03/25 16:33:02;;;;;;;0.00;0.00;;;10.80;99.90;;;;;;4992997;28;20019;-88
2023/03/25 16:35:28;;;;;;;0.00;0.00;;;10.80;99.90;;;;;;4991119;28;20027;-89
2023/03/25 16:37:58;;;;;;;0.00;0.00;;;10.70;99.90;;;;;;4999899;28;20077;-90
2023/03/25 16:40:35;;;;;;;0.00;0.00;;;10.70;99.90;;;;;;4992778;28;20018;-91
2023/03/25 16:43:17;;;;;;;0.00;0.00;;;10.60;99.90;;;;;;4987765;28;20086;-90
2023/03/25 16:45:44;;;;;;;0.00;0.00;;;10.40;99.90;;;;;;4984361;28;20050;-91
2023/03/25 16:48:32;;;;;;;0.10;0.10;;;10.30;99.90;;;;;;4996464;28;20028;-91
2023/03/25 16:51:37;;;;;;;0.00;0.00;;;10.30;99.90;;;;;;4985848;28;20021;-91
2023/03/25 16:54:09;;;;;;;0.00;0.00;;;10.20;99.90;;;;;;4995457;28;20027;-90
2023/03/25 16:56:38;;;;;;;0.00;0.00;;;10.10;99.90;;;;;;5008408;28;20101;-90
2023/03/25 16:59:17;;;;;;;0.10;0.10;;;10.00;99.90;;;;;;4988105;28;20038;-90
2023/03/25 17:01:55;;;;;;;0.10;0.10;;;9.90;99.90;;;;;;5005614;28;20030;-90
2023/03/25 17:04:26;;;;;;;0.10;0.10;;;10.00;99.90;;;;;;4983243;28;20027;-90
2023/03/25 17:06:59;;;;;;;0.00;0.00;;;10.00;99.90;;;;;;4990036;28;20048;-92
2023/03/25 17:09:33;;;;;;;0.00;0.00;;;10.00;99.90;;;;;;4990062;28;20377;-90
2023/03/25 17:12:01;;;;;;;0.00;0.00;;;9.90;99.90;;;;;;4989984;28;20402;-90
2023/03/25 17:14:32;;;;;;;0.10;0.10;;;9.80;99.90;;;;;;4990090;28;20026;-90
2023/03/25 17:17:07;;;;;;;0.05;0.05;;;9.80;99.90;;;;;;4995503;28;20069;-90
2023/03/25 17:19:32;;;;;;;0.10;0.10;;;9.80;99.90;;;;;;4993963;28;20157;-89
2023/03/25 17:22:20;;;;;;;0.10;0.10;;;10.10;99.90;;;;;;4993789;28;20506;-91
2023/03/25 17:24:58;;;;;;;0.10;0.10;;;9.80;99.90;;;;;;4986043;28;20038;-91
2023/03/25 17:27:33;;;;;;;0.10;0.10;;;10.40;99.90;;;;;;4993363;28;20037;-90
2023/03/25 17:30:16;;;;;;;0.00;0.00;;;9.80;99.90;;;;;;4992101;28;20050;-91
2023/03/25 17:32:42;;;;;;;0.00;0.00;;;9.80;99.90;;;;;;4993615;28;20116;-89
2023/03/25 17:35:22;;;;;;;0.00;0.00;;;10.10;99.90;;;;;;4993897;28;20453;-90
